Time;durP1;ratioP1;P1;durP2;ratioP2;P2;SDS_P1;SDS_P2;PMS_P1;PMS_P2;Temp;Humidity;BMP_temperature;BMP_pressure;BME280_temperature;BME280_humidity;BME280_pressure;Samples;Min_cycle;Max_cycle;Signal;HPM_P1;HPM_P2
2023/01/23 00:00:56;;;;;;;6.55;2.20;;;5.80;81.30;;;;;;7410254;19;20335;-77
2023/01/23 00:03:25;;;;;;;6.18;3.05;;;5.90;83.30;;;;;;7376276;19;20594;-77
2023/01/23 00:06:06;;;;;;;7.05;2.70;;;5.90;82.10;;;;;;7378412;19;19914;-76
2023/01/23 00:08:33;;;;;;;6.35;2.90;;;6.00;82.30;;;;;;7377997;19;20375;-77
2023/01/23 00:11:05;;;;;;;;;;;6.00;81.90;;;;;;7388341;19;19919;-77
2023/01/23 00:13:31;;;;;;;5.72;2.53;;;6.00;81.20;;;;;;7407153;19;19910;-77
2023/01/23 00:15:56;;;;;;;6.03;2.78;;;5.90;80.70;;;;;;7403937;19;19950;-76
2023/01/23 00:18:22;;;;;;;7.80;3.15;;;5.90;80.50;;;;;;7410357;19;20271;-77
2023/01/23 00:20:48;;;;;;;7.05;2.95;;;5.90;80.90;;;;;;7415101;19;19915;-77
2023/01/23 00:23:14;;;;;;;7.10;2.50;;;5.80;81.20;;;;;;7401086;19;19922;-76
2023/01/23 00:25:39;;;;;;;9.55;4.13;;;5.90;81.70;;;;;;7404034;19;19923;-77
2023/01/23 00:28:05;;;;;;;7.20;2.60;;;5.90;82.20;;;;;;7403340;19;19926;-77
2023/01/23 00:30:32;;;;;;;7.25;2.95;;;5.90;86.80;;;;;;7406958;19;19935;-76
2023/01/23 00:32:58;;;;;;;7.60;3.05;;;5.80;86.20;;;;;;7404859;19;19938;-77
2023/01/23 00:35:25;;;;;;;9.05;3.55;;;5.80;86.60;;;;;;7403882;19;19930;-77
2023/01/23 00:37:50;;;;;;;7.15;3.20;;;5.70;89.40;;;;;;7404972;19;19946;-76
2023/01/23 00:40:16;;;;;;;13.68;4.45;;;5.60;89.10;;;;;;7405549;19;19923;-77
2023/01/23 00:42:42;;;;;;;9.18;3.28;;;5.60;89.90;;;;;;7401604;19;19914;-77
2023/01/23 00:45:08;;;;;;;8.75;3.67;;;5.60;91.00;;;;;;7403441;19;19922;-76
2023/01/23 00:47:34;;;;;;;11.30;4.15;;;5.60;91.30;;;;;;7406539;19;19922;-76
2023/01/23 00:49:59;;;;;;;10.55;3.60;;;5.60;91.50;;;;;;7376982;19;19958;-76
2023/01/23 00:52:28;;;;;;;8.85;3.45;;;5.60;92.20;;;;;;7405077;19;19918;-76
2023/01/23 00:54:53;;;;;;;9.20;3.90;;;5.50;92.80;;;;;;7410602;19;19915;-76
2023/01/23 00:57:19;;;;;;;11.65;3.80;;;5.50;92.80;;;;;;7406535;19;19950;-78
2023/01/23 00:59:45;;;;;;;9.18;3.47;;;5.40;93.60;;;;;;7405776;19;19948;-76
2023/01/23 01:02:11;;;;;;;9.48;3.22;;;5.50;94.60;;;;;;7405850;19;19999;-75
2023/01/23 01:04:36;;;;;;;7.07;3.90;;;5.50;94.80;;;;;;7409052;19;19936;-76
2023/01/23 01:07:02;;;;;;;8.27;3.70;;;5.50;94.80;;;;;;7404239;19;19911;-75
2023/01/23 01:09:28;;;;;;;8.25;3.20;;;5.40;95.20;;;;;;7408578;19;19918;-76
2023/01/23 01:11:54;;;;;;;8.32;3.65;;;5.40;95.20;;;;;;7407808;19;20337;-75
2023/01/23 01:14:20;;;;;;;7.00;3.13;;;5.40;95.50;;;;;;7405915;19;19996;-76
2023/01/23 01:16:45;;;;;;;7.85;3.55;;;5.30;95.50;;;;;;7407284;19;19922;-77
2023/01/23 01:19:13;;;;;;;10.48;3.67;;;5.30;95.70;;;;;;7384995;19;19926;-75
2023/01/23 01:21:39;;;;;;;;;;;5.20;96.00;;;;;;7410361;19;19946;-76
2023/01/23 01:24:05;;;;;;;8.13;3.80;;;5.10;95.90;;;;;;7406149;19;19914;-76
2023/01/23 01:26:31;;;;;;;11.65;4.00;;;5.20;96.10;;;;;;7407575;19;19931;-76
2023/01/23 01:28:57;;;;;;;8.50;3.03;;;5.30;96.10;;;;;;7408377;19;19915;-76
2023/01/23 01:31:23;;;;;;;9.90;3.70;;;5.10;96.10;;;;;;7404367;19;20416;-76
2023/01/23 01:33:49;;;;;;;11.52;3.60;;;5.10;96.20;;;;;;7408147;19;20323;-77
2023/01/23 01:36:19;;;;;;;8.30;3.88;;;5.10;96.30;;;;;;7403322;19;20335;-76
2023/01/23 01:38:44;;;;;;;9.68;3.03;;;5.10;96.10;;;;;;7383205;19;19993;-76
2023/01/23 01:41:11;;;;;;;8.52;3.72;;;5.10;96.10;;;;;;7405605;19;19914;-77
2023/01/23 01:43:38;;;;;;;7.55;3.45;;;5.00;95.90;;;;;;7406012;19;19924;-75
2023/01/23 01:46:08;;;;;;;8.50;3.92;;;5.00;95.90;;;;;;7389929;19;19926;-76
2023/01/23 01:48:40;;;;;;;8.32;3.72;;;5.10;96.00;;;;;;7406730;19;19911;-76
2023/01/23 01:51:27;;;;;;;7.72;3.20;;;5.00;95.90;;;;;;7402229;19;19914;-76
2023/01/23 01:54:15;;;;;;;10.90;3.97;;;5.00;95.70;;;;;;7384573;19;19915;-74
2023/01/23 01:56:55;;;;;;;9.00;3.83;;;4.90;95.80;;;;;;7404346;19;19938;-76
2023/01/23 01:59:24;;;;;;;7.90;3.25;;;4.90;95.80;;;;;;7404026;19;19938;-76
2023/01/23 02:01:56;;;;;;;8.80;3.83;;;4.90;95.70;;;;;;7407763;19;19923;-76
2023/01/23 02:04:22;;;;;;;9.15;3.97;;;4.80;95.80;;;;;;7405496;19;25258;-76
2023/01/23 02:06:50;;;;;;;9.00;3.53;;;4.80;95.80;;;;;;7405387;19;19918;-76
2023/01/23 02:09:23;;;;;;;7.85;3.20;;;4.80;96.10;;;;;;7403218;19;19922;-76
2023/01/23 02:11:49;;;;;;;8.25;3.65;;;4.70;96.10;;;;;;7405877;19;19935;-76
2023/01/23 02:14:15;;;;;;;7.05;2.67;;;4.80;96.10;;;;;;7407833;19;19915;-75
2023/01/23 02:16:48;;;;;;;9.85;3.38;;;4.80;96.10;;;;;;7404436;19;19922;-76
2023/01/23 02:19:53;;;;;;;7.50;3.10;;;4.80;96.00;;;;;;7406171;19;19941;-75
2023/01/23 02:22:19;;;;;;;9.65;3.20;;;4.80;96.00;;;;;;7406593;19;19918;-75
2023/01/23 02:25:15;;;;;;;11.52;3.60;;;4.80;96.10;;;;;;7406311;19;19931;-76
2023/01/23 02:27:40;;;;;;;7.13;3.25;;;4.80;96.00;;;;;;7350538;19;20245;-75
2023/01/23 02:30:07;;;;;;;10.50;3.17;;;4.90;96.10;;;;;;7381410;19;19915;-75
2023/01/23 02:32:34;;;;;;;10.50;2.92;;;4.80;96.00;;;;;;7404199;19;19970;-75
2023/01/23 02:35:07;;;;;;;8.48;3.60;;;4.90;96.00;;;;;;7404556;19;19926;-75
2023/01/23 02:37:36;;;;;;;9.02;2.78;;;4.90;95.90;;;;;;7406748;19;19922;-75
2023/01/23 02:40:03;;;;;;;8.07;3.45;;;5.00;95.90;;;;;;7405175;19;19952;-76
2023/01/23 02:42:29;;;;;;;9.60;3.33;;;4.90;95.90;;;;;;7387830;19;19942;-75
2023/01/23 02:44:56;;;;;;;7.60;3.20;;;4.90;96.10;;;;;;7407320;19;19926;-75
2023/01/23 02:47:23;;;;;;;7.95;3.47;;;4.90;95.90;;;;;;7405882;19;19930;-75
2023/01/23 02:49:49;;;;;;;7.70;3.25;;;4.90;95.80;;;;;;7405989;19;20349;-75
2023/01/23 02:52:14;;;;;;;7.88;2.42;;;4.80;95.80;;;;;;7408113;19;19918;-76
2023/01/23 02:54:40;;;;;;;8.43;3.28;;;4.90;95.90;;;;;;7407041;19;20586;-75
2023/01/23 02:57:08;;;;;;;8.68;3.58;;;4.80;96.00;;;;;;7405549;19;20267;-75
2023/01/23 03:02:18;;;;;;;6.82;2.75;;;4.70;95.80;;;;;;7386343;19;20793;-76
2023/01/23 03:04:43;;;;;;;6.20;2.67;;;4.60;95.80;;;;;;7373723;19;19915;-75
2023/01/23 03:07:09;;;;;;;7.22;2.88;;;4.70;96.10;;;;;;7397698;19;19911;-76
2023/01/23 03:09:35;;;;;;;8.80;3.83;;;4.80;95.80;;;;;;7404752;19;19938;-75
2023/01/23 03:12:01;;;;;;;6.40;2.88;;;4.70;95.80;;;;;;7401934;19;20247;-75
2023/01/23 03:14:31;;;;;;;7.60;3.10;;;4.70;96.20;;;;;;7405570;19;19922;-75
2023/01/23 03:16:57;;;;;;;9.40;2.97;;;4.70;96.00;;;;;;7405587;19;20328;-76
2023/01/23 03:19:25;;;;;;;7.15;2.72;;;4.70;95.90;;;;;;7401357;19;20323;-75
2023/01/23 03:21:52;;;;;;;7.63;2.75;;;4.70;96.00;;;;;;7399207;19;19978;-75
2023/01/23 03:24:19;;;;;;;6.10;2.33;;;4.60;95.90;;;;;;7402753;19;19915;-75
2023/01/23 03:26:47;;;;;;;8.00;3.10;;;4.60;96.20;;;;;;7402401;19;20255;-74
2023/01/23 03:32:03;;;;;;;7.05;2.70;;;4.70;96.20;;;;;;7402852;19;19918;-76
2023/01/23 03:34:29;;;;;;;7.43;3.03;;;4.70;96.50;;;;;;7403902;19;19922;-75
2023/01/23 03:36:55;;;;;;;7.45;3.50;;;4.70;96.50;;;;;;7402952;19;20590;-74
2023/01/23 03:42:05;;;;;;;12.05;3.17;;;4.70;96.80;;;;;;7402189;19;20279;-75
2023/01/23 03:44:31;;;;;;;6.55;3.13;;;4.70;96.90;;;;;;7400315;19;19918;-75
2023/01/23 03:46:57;;;;;;;10.82;3.08;;;4.70;97.00;;;;;;7402576;19;19952;-75
2023/01/23 03:49:23;;;;;;;8.07;3.70;;;4.70;96.90;;;;;;7381361;19;19930;-75
2023/01/23 03:51:50;;;;;;;7.90;3.38;;;4.70;96.90;;;;;;7398505;19;20554;-75
2023/01/23 03:54:15;;;;;;;7.43;3.40;;;4.70;96.80;;;;;;7399772;19;20275;-75
2023/01/23 03:56:41;;;;;;;8.38;3.03;;;4.70;96.90;;;;;;7401722;19;19907;-75
2023/01/23 03:59:08;;;;;;;9.52;3.55;;;4.70;96.90;;;;;;7400440;19;19922;-75
2023/01/23 04:01:35;;;;;;;11.63;3.42;;;4.80;96.90;;;;;;7404644;19;19918;-75
2023/01/23 04:04:01;;;;;;;9.88;3.28;;;4.80;96.90;;;;;;7382947;19;20030;-75
2023/01/23 04:06:27;;;;;;;10.43;3.50;;;4.70;96.90;;;;;;7400879;19;19915;-75
2023/01/23 04:08:57;;;;;;;7.18;2.95;;;4.60;96.90;;;;;;7384125;19;19938;-76
2023/01/23 04:11:23;;;;;;;4.25;1.90;;;4.60;96.10;;;;;;7404110;19;20370;-76
2023/01/23 04:13:49;;;;;;;4.35;1.25;;;4.70;90.10;;;;;;7384483;19;19922;-75
2023/01/23 04:16:16;;;;;;;3.95;1.20;;;4.70;83.80;;;;;;7397803;19;19914;-75
2023/01/23 04:18:42;;;;;;;3.95;1.10;;;4.70;82.10;;;;;;7403606;19;19922;-76
2023/01/23 04:21:08;;;;;;;2.25;0.73;;;4.70;79.00;;;;;;7401528;19;19938;-75
2023/01/23 04:23:36;;;;;;;2.90;1.10;;;4.70;77.40;;;;;;7399967;19;20394;-76
2023/01/23 04:26:01;;;;;;;1.98;0.70;;;4.70;76.10;;;;;;7395125;19;19955;-75
2023/01/23 04:28:27;;;;;;;3.75;1.17;;;4.80;75.40;;;;;;7399244;19;19949;-76
2023/01/23 04:30:53;;;;;;;1.98;0.80;;;4.80;74.70;;;;;;7403641;19;19974;-76
2023/01/23 04:33:19;;;;;;;4.80;1.08;;;4.80;75.10;;;;;;7312937;19;19918;-75
2023/01/23 04:36:04;;;;;;;2.28;0.80;;;4.70;77.30;;;;;;7399229;19;19910;-74
2023/01/23 04:38:32;;;;;;;3.38;1.05;;;4.70;74.20;;;;;;7401111;19;19918;-74
2023/01/23 04:40:59;;;;;;;2.92;0.80;;;4.70;77.40;;;;;;7403122;19;19915;-76
2023/01/23 04:43:24;;;;;;;2.85;1.02;;;4.80;73.80;;;;;;7405861;19;19926;-76
2023/01/23 04:45:55;;;;;;;3.67;1.45;;;4.70;75.30;;;;;;7407266;19;19932;-75
2023/01/23 04:48:21;;;;;;;3.40;1.40;;;4.50;77.90;;;;;;7404366;19;19945;-76
2023/01/23 04:50:48;;;;;;;3.75;1.15;;;4.30;77.90;;;;;;7408319;19;19929;-76
2023/01/23 04:53:13;;;;;;;3.53;1.10;;;4.30;77.80;;;;;;7406172;19;20335;-76
2023/01/23 04:55:39;;;;;;;2.70;0.70;;;4.30;77.50;;;;;;7409306;19;19974;-75
2023/01/23 04:58:05;;;;;;;3.80;1.33;;;4.40;75.10;;;;;;7407468;19;20540;-75
2023/01/23 05:00:31;;;;;;;4.05;1.13;;;4.30;75.40;;;;;;7407289;19;19922;-75
2023/01/23 05:02:57;;;;;;;3.63;0.90;;;4.30;75.40;;;;;;7405060;19;20255;-76
2023/01/23 05:05:24;;;;;;;3.63;1.10;;;4.20;75.20;;;;;;7404868;19;19957;-75
2023/01/23 05:07:50;;;;;;;4.10;1.10;;;4.10;76.20;;;;;;7406820;19;19944;-77
2023/01/23 05:10:17;;;;;;;4.13;1.23;;;4.00;75.90;;;;;;7404860;19;19919;-75
2023/01/23 05:12:43;;;;;;;3.40;1.00;;;4.00;75.80;;;;;;7403386;19;19914;-74
2023/01/23 05:15:10;;;;;;;3.65;1.30;;;4.00;74.90;;;;;;7405962;19;19919;-75
2023/01/23 05:17:35;;;;;;;5.88;1.08;;;4.00;74.90;;;;;;7409109;19;19907;-75
2023/01/23 05:20:01;;;;;;;4.15;1.23;;;4.00;74.90;;;;;;7407015;19;19915;-75
2023/01/23 05:22:27;;;;;;;3.60;1.25;;;4.00;75.40;;;;;;7404769;19;19926;-75
2023/01/23 05:24:53;;;;;;;2.58;0.95;;;3.90;74.40;;;;;;7410080;19;19934;-75
2023/01/23 05:27:18;;;;;;;2.95;0.90;;;3.80;75.30;;;;;;7407060;19;19924;-76
2023/01/23 05:29:44;;;;;;;3.40;0.93;;;3.80;75.80;;;;;;7404711;19;19939;-76
2023/01/23 05:32:10;;;;;;;3.78;1.30;;;3.70;75.90;;;;;;7374337;19;19915;-75
2023/01/23 05:34:36;;;;;;;3.20;0.80;;;3.80;75.50;;;;;;7406514;19;19915;-75
2023/01/23 05:37:02;;;;;;;2.95;0.95;;;3.80;75.70;;;;;;7407527;19;19918;-77
2023/01/23 05:39:31;;;;;;;3.83;1.13;;;4.10;74.40;;;;;;7405823;19;20323;-76
2023/01/23 05:41:57;;;;;;;4.07;1.40;;;4.20;74.00;;;;;;7409071;19;19926;-75
2023/01/23 05:44:23;;;;;;;2.67;0.85;;;4.20;73.90;;;;;;7375075;19;20016;-75
2023/01/23 05:46:49;;;;;;;2.35;0.85;;;4.20;74.40;;;;;;7405873;19;19929;-76
2023/01/23 05:49:14;;;;;;;3.25;1.05;;;4.10;74.50;;;;;;7404776;19;19911;-76
2023/01/23 05:51:40;;;;;;;3.05;1.25;;;4.00;74.10;;;;;;7403314;19;19986;-76
2023/01/23 05:54:09;;;;;;;2.63;0.85;;;4.20;74.30;;;;;;7405266;19;19931;-75
2023/01/23 05:56:35;;;;;;;2.97;0.80;;;4.10;74.40;;;;;;7383756;19;19918;-75
2023/01/23 05:59:02;;;;;;;1.95;1.02;;;4.10;74.00;;;;;;7405320;19;20338;-76
2023/01/23 06:01:28;;;;;;;3.05;0.75;;;4.10;74.10;;;;;;7407300;19;19922;-75
2023/01/23 06:03:54;;;;;;;3.88;0.90;;;4.10;73.90;;;;;;7408249;19;20346;-75
2023/01/23 06:06:19;;;;;;;2.92;1.00;;;4.00;74.30;;;;;;7371830;19;19946;-76
2023/01/23 06:08:45;;;;;;;3.17;0.80;;;4.00;74.90;;;;;;7408660;19;19915;-75
2023/01/23 06:11:11;;;;;;;2.90;0.85;;;4.30;72.70;;;;;;7373375;19;20362;-76
2023/01/23 06:13:38;;;;;;;2.60;0.73;;;4.40;72.70;;;;;;7406317;19;19923;-75
2023/01/23 06:16:04;;;;;;;1.15;0.52;;;4.40;74.30;;;;;;7406788;19;19955;-76
2023/01/23 06:18:30;;;;;;;1.65;0.50;;;4.50;71.90;;;;;;7409051;19;19934;-76
2023/01/23 06:21:01;;;;;;;1.95;0.55;;;4.60;71.60;;;;;;7408738;19;20271;-76
2023/01/23 06:23:28;;;;;;;2.42;0.75;;;4.60;72.00;;;;;;7406132;19;19915;-77
2023/01/23 06:25:57;;;;;;;;;;;4.60;72.00;;;;;;7411029;19;19922;-75
2023/01/23 06:28:23;;;;;;;2.90;0.80;;;4.50;72.90;;;;;;7406206;19;19949;-76
2023/01/23 06:30:50;;;;;;;2.35;0.95;;;4.30;73.20;;;;;;7406644;19;19923;-75
2023/01/23 06:33:15;;;;;;;2.28;0.73;;;4.40;73.00;;;;;;7402535;19;20356;-76
2023/01/23 06:35:41;;;;;;;2.25;0.77;;;4.30;73.80;;;;;;7410074;19;19918;-75
2023/01/23 06:38:07;;;;;;;2.97;0.68;;;4.40;72.80;;;;;;7382070;19;20346;-74
2023/01/23 06:40:33;;;;;;;3.75;0.82;;;4.50;72.20;;;;;;7404480;19;20014;-75
2023/01/23 06:42:58;;;;;;;2.95;0.88;;;4.50;73.10;;;;;;7406729;19;19914;-76
2023/01/23 06:45:24;;;;;;;2.35;0.63;;;4.60;71.50;;;;;;7404830;19;19918;-77
2023/01/23 06:47:51;;;;;;;3.00;0.73;;;4.70;72.00;;;;;;7409016;19;20258;-76
2023/01/23 06:50:17;;;;;;;2.47;0.70;;;4.70;71.90;;;;;;7404482;19;19918;-75
2023/01/23 06:52:43;;;;;;;3.90;1.50;;;4.60;72.40;;;;;;7383783;19;19923;-75
2023/01/23 06:55:10;;;;;;;3.67;0.65;;;4.70;71.60;;;;;;7399494;19;19952;-76
2023/01/23 06:57:39;;;;;;;2.25;0.93;;;4.70;71.30;;;;;;7405887;19;19978;-75
2023/01/23 07:00:06;;;;;;;2.60;0.90;;;4.50;71.70;;;;;;7407536;19;20386;-75
2023/01/23 07:02:31;;;;;;;1.50;0.40;;;4.50;72.40;;;;;;7407615;19;19918;-75
2023/01/23 07:04:57;;;;;;;3.55;1.00;;;4.60;72.30;;;;;;7402072;19;19931;-76
2023/01/23 07:07:24;;;;;;;2.45;0.52;;;4.50;72.10;;;;;;7401900;19;19982;-76
2023/01/23 07:09:49;;;;;;;3.22;0.75;;;4.60;71.20;;;;;;7405287;19;19919;-75
2023/01/23 07:12:15;;;;;;;3.80;1.02;;;4.50;72.20;;;;;;7404086;19;19915;-75
2023/01/23 07:14:41;;;;;;;2.42;1.05;;;4.50;72.30;;;;;;7406728;19;19921;-76
2023/01/23 07:17:07;;;;;;;5.63;0.70;;;4.50;71.80;;;;;;7403819;19;19919;-75
2023/01/23 07:19:32;;;;;;;3.08;0.90;;;4.40;72.10;;;;;;7401164;19;20641;-75
2023/01/23 07:22:00;;;;;;;3.00;0.77;;;4.50;71.90;;;;;;7403047;19;19982;-75
2023/01/23 07:24:28;;;;;;;3.17;1.08;;;4.50;71.90;;;;;;7401036;19;19915;-75
2023/01/23 07:26:54;;;;;;;5.55;1.80;;;4.50;73.10;;;;;;7403278;19;19915;-76
2023/01/23 07:29:20;;;;;;;6.07;1.35;;;4.40;74.30;;;;;;7404158;19;19934;-77
2023/01/23 07:31:46;;;;;;;5.68;1.40;;;4.40;74.90;;;;;;7407548;19;19942;-76
2023/01/23 07:34:12;;;;;;;4.70;1.02;;;4.30;74.40;;;;;;7405864;19;19919;-75
2023/01/23 07:36:37;;;;;;;5.65;1.50;;;4.40;73.60;;;;;;7407191;19;19918;-75
2023/01/23 07:39:03;;;;;;;3.75;1.02;;;4.60;73.50;;;;;;7405898;19;19911;-74
2023/01/23 07:41:29;;;;;;;3.13;0.88;;;4.60;73.60;;;;;;7402644;19;20289;-76
2023/01/23 07:43:54;;;;;;;2.65;0.90;;;4.70;72.40;;;;;;7405390;19;20265;-75
2023/01/23 07:46:22;;;;;;;4.93;1.13;;;4.80;71.60;;;;;;7401330;19;19926;-76
2023/01/23 07:48:48;;;;;;;5.10;1.85;;;4.80;71.90;;;;;;7403609;19;19922;-76
2023/01/23 07:51:14;;;;;;;4.13;1.23;;;4.90;72.40;;;;;;7400870;19;19923;-75
2023/01/23 07:53:39;;;;;;;3.85;1.50;;;5.00;72.50;;;;;;7401652;19;19938;-76
2023/01/23 07:56:06;;;;;;;3.08;1.10;;;5.10;72.60;;;;;;7401548;19;19918;-76
2023/01/23 07:58:32;;;;;;;3.45;1.13;;;5.30;72.20;;;;;;7402000;19;19929;-76
2023/01/23 08:00:58;;;;;;;7.15;1.50;;;5.40;71.80;;;;;;7402123;19;20374;-76
2023/01/23 08:03:27;;;;;;;7.03;1.33;;;5.40;72.20;;;;;;7401485;19;19922;-76
2023/01/23 08:05:53;;;;;;;9.68;2.78;;;5.50;71.60;;;;;;7400614;19;19970;-74
2023/01/23 08:08:19;;;;;;;6.68;1.73;;;5.60;71.20;;;;;;7403088;19;19933;-74
2023/01/23 08:10:45;;;;;;;7.10;1.67;;;5.60;72.40;;;;;;7368640;19;19911;-76
2023/01/23 08:13:11;;;;;;;8.07;1.83;;;5.60;73.00;;;;;;7401855;19;20365;-77
2023/01/23 08:15:37;;;;;;;6.75;2.17;;;5.60;73.20;;;;;;7380474;19;19915;-77
2023/01/23 08:18:03;;;;;;;8.00;2.13;;;5.60;74.00;;;;;;7407860;19;19921;-75
2023/01/23 08:20:29;;;;;;;6.75;2.47;;;5.60;74.40;;;;;;7394599;19;19915;-76
2023/01/23 08:22:57;;;;;;;9.80;2.95;;;5.60;74.40;;;;;;7398301;19;19922;-77
2023/01/23 08:25:23;;;;;;;7.90;2.10;;;5.60;74.50;;;;;;7397352;19;19926;-77
2023/01/23 08:27:49;;;;;;;6.63;2.17;;;5.60;74.30;;;;;;7387319;19;20539;-77
2023/01/23 08:30:16;;;;;;;6.10;1.98;;;5.60;73.90;;;;;;7378190;19;20600;-76
2023/01/23 08:32:42;;;;;;;7.22;1.98;;;6.30;74.00;;;;;;7404535;19;19926;-77
2023/01/23 08:35:08;;;;;;;5.78;2.13;;;7.60;71.60;;;;;;7406824;19;20287;-77
2023/01/23 08:37:35;;;;;;;4.65;1.95;;;8.50;70.90;;;;;;7410220;19;19911;-77
2023/01/23 08:40:01;;;;;;;12.82;4.90;;;10.00;68.00;;;;;;7409904;19;20009;-77
2023/01/23 08:42:28;;;;;;;6.97;3.20;;;11.00;66.50;;;;;;7409405;19;19952;-77
2023/01/23 08:44:55;;;;;;;4.68;2.00;;;11.70;64.40;;;;;;7414432;19;20010;-77
2023/01/23 08:47:21;;;;;;;5.20;2.00;;;12.20;64.20;;;;;;7406699;19;19924;-77
2023/01/23 08:49:47;;;;;;;5.03;2.28;;;12.60;63.10;;;;;;7381859;19;19922;-77
2023/01/23 08:52:13;;;;;;;5.93;2.60;;;13.10;62.90;;;;;;7400166;19;19938;-76
2023/01/23 08:54:38;;;;;;;8.45;2.70;;;13.40;62.10;;;;;;7367735;19;19923;-77
2023/01/23 08:57:04;;;;;;;5.82;2.40;;;13.70;61.70;;;;;;7400220;19;19918;-77
2023/01/23 08:59:33;;;;;;;7.07;2.83;;;12.80;61.10;;;;;;7399806;19;19918;-77
2023/01/23 09:01:59;;;;;;;7.43;2.88;;;13.40;62.00;;;;;;7398565;19;19910;-77
2023/01/23 09:04:26;;;;;;;7.22;2.60;;;13.60;61.00;;;;;;7400708;19;19920;-76
2023/01/23 09:06:51;;;;;;;;;;;13.60;61.20;;;;;;7407999;19;19935;-78
2023/01/23 09:09:17;;;;;;;9.30;3.15;;;13.60;61.50;;;;;;7409486;19;19918;-76
2023/01/23 09:11:45;;;;;;;8.02;3.45;;;13.90;61.40;;;;;;7408507;19;19922;-78
2023/01/23 09:14:11;;;;;;;10.48;2.53;;;12.80;61.00;;;;;;7398934;19;19973;-77
2023/01/23 09:16:39;;;;;;;11.57;2.53;;;12.10;60.90;;;;;;7398442;19;20376;-77
2023/01/23 09:19:05;;;;;;;9.85;2.47;;;11.20;62.00;;;;;;7407976;19;19911;-77
2023/01/23 09:21:31;;;;;;;11.32;3.22;;;10.10;63.00;;;;;;7406164;19;19950;-77
2023/01/23 09:23:56;;;;;;;7.60;2.75;;;9.10;64.70;;;;;;7406455;19;19919;-78
2023/01/23 09:26:22;;;;;;;10.40;3.15;;;8.80;65.80;;;;;;7388250;19;19926;-76
2023/01/23 09:28:48;;;;;;;8.82;2.70;;;8.60;65.60;;;;;;7403365;19;19929;-76
2023/01/23 09:31:13;;;;;;;6.35;3.03;;;8.80;64.90;;;;;;7402513;19;20343;-77
2023/01/23 09:33:40;;;;;;;10.13;2.80;;;9.00;65.90;;;;;;7392245;19;19925;-77
2023/01/23 09:36:07;;;;;;;11.75;3.20;;;9.20;65.80;;;;;;7349841;19;19918;-76
2023/01/23 09:38:34;;;;;;;7.85;3.13;;;9.30;66.10;;;;;;7404731;19;19917;-78
2023/01/23 09:41:18;;;;;;;8.57;2.88;;;9.30;65.60;;;;;;7406398;19;19935;-76
2023/01/23 09:43:52;;;;;;;9.38;3.70;;;9.40;65.70;;;;;;7406025;19;19918;-77
2023/01/23 09:46:43;;;;;;;11.18;3.33;;;9.40;65.90;;;;;;7404485;19;20038;-77
2023/01/23 09:49:18;;;;;;;11.35;3.83;;;9.60;65.70;;;;;;7403622;19;19930;-77
2023/01/23 09:51:53;;;;;;;13.90;4.82;;;9.70;66.10;;;;;;7402467;19;21197;-76
2023/01/23 09:55:00;;;;;;;13.75;4.70;;;10.50;66.10;;;;;;7399532;19;19926;-77
2023/01/23 09:57:40;;;;;;;13.23;4.78;;;11.40;64.90;;;;;;7405367;19;19922;-77
2023/01/23 10:00:26;;;;;;;8.63;4.05;;;11.40;64.00;;;;;;7393552;19;19922;-77
2023/01/23 10:02:54;;;;;;;12.80;4.50;;;11.70;63.70;;;;;;7396067;19;19914;-77
2023/01/23 10:05:49;;;;;;;11.15;4.07;;;11.90;62.90;;;;;;7398287;19;19933;-78
2023/01/23 10:08:18;;;;;;;10.77;3.83;;;12.20;62.50;;;;;;7383859;19;19939;-76
2023/01/23 10:10:57;;;;;;;10.57;3.55;;;12.50;61.70;;;;;;7405421;19;19919;-77
2023/01/23 10:13:51;;;;;;;8.90;3.78;;;12.10;61.20;;;;;;7381102;19;19941;-78
2023/01/23 10:16:39;;;;;;;9.10;3.53;;;12.10;62.00;;;;;;7405358;19;19914;-77
2023/01/23 10:19:32;;;;;;;7.63;2.97;;;12.30;61.60;;;;;;7408176;19;19919;-79
2023/01/23 10:22:14;;;;;;;8.52;2.28;;;12.40;61.60;;;;;;7406572;19;19926;-77
2023/01/23 10:24:46;;;;;;;5.18;1.63;;;11.90;61.20;;;;;;7408680;19;20266;-77
2023/01/23 10:27:20;;;;;;;6.95;2.22;;;12.00;60.50;;;;;;7396376;19;20393;-77
2023/01/23 10:29:56;;;;;;;8.13;2.88;;;12.40;61.40;;;;;;7404314;19;20227;-76
2023/01/23 10:32:29;;;;;;;6.80;3.38;;;12.20;62.00;;;;;;7401272;19;21165;-76
2023/01/23 10:35:11;;;;;;;5.35;3.15;;;12.50;61.60;;;;;;7406616;19;19917;-76
2023/01/23 10:37:51;;;;;;;12.95;3.28;;;12.50;62.70;;;;;;7404267;19;19919;-76
2023/01/23 10:43:16;;;;;;;7.70;3.47;;;11.70;62.90;;;;;;7406192;19;19939;-78
2023/01/23 10:45:44;;;;;;;7.90;4.03;;;11.30;63.10;;;;;;7403694;19;19926;-77
2023/01/23 10:48:31;;;;;;;8.32;3.22;;;11.30;63.50;;;;;;7404123;19;19915;-75
2023/01/23 10:50:58;;;;;;;7.13;3.03;;;11.50;62.90;;;;;;7408129;19;19915;-76
2023/01/23 10:53:25;;;;;;;5.68;2.63;;;11.60;62.90;;;;;;7403437;19;19922;-77
2023/01/23 10:55:54;;;;;;;6.80;2.70;;;11.60;62.00;;;;;;7401675;19;19918;-77
2023/01/23 10:58:35;;;;;;;6.55;2.42;;;12.00;62.00;;;;;;7379160;19;19915;-77
2023/01/23 11:01:03;;;;;;;8.63;2.97;;;12.00;61.60;;;;;;7398911;19;19914;-76
2023/01/23 11:03:31;;;;;;;6.45;2.83;;;12.20;62.00;;;;;;7398197;19;19914;-77
2023/01/23 11:06:04;;;;;;;7.15;2.90;;;12.60;62.60;;;;;;7398218;19;20294;-76
2023/01/23 11:08:37;;;;;;;6.82;3.60;;;12.80;62.50;;;;;;7404343;19;19922;-78
2023/01/23 11:11:14;;;;;;;9.68;2.97;;;13.20;62.50;;;;;;7401398;19;19970;-76
2023/01/23 11:13:42;;;;;;;7.47;2.88;;;13.70;62.60;;;;;;7400683;19;19993;-76
2023/01/23 11:16:21;;;;;;;7.78;3.05;;;14.10;63.50;;;;;;7399105;19;19926;-78
2023/01/23 11:19:10;;;;;;;7.65;3.35;;;14.30;63.60;;;;;;7370464;19;19914;-77
2023/01/23 11:21:56;;;;;;;8.95;3.95;;;14.50;64.30;;;;;;7401623;19;19910;-77
2023/01/23 11:24:35;;;;;;;9.55;3.95;;;14.80;65.90;;;;;;7405632;19;19966;-77
2023/01/23 11:27:16;;;;;;;7.28;4.10;;;15.10;65.70;;;;;;7399254;19;19925;-76
2023/01/23 11:30:12;;;;;;;7.32;3.75;;;15.10;69.50;;;;;;7357770;19;20331;-76
2023/01/23 11:33:03;;;;;;;8.88;4.50;;;15.20;69.60;;;;;;7395434;19;19925;-77
2023/01/23 11:36:02;;;;;;;7.45;4.35;;;15.60;69.80;;;;;;7403339;19;19919;-77
2023/01/23 11:38:37;;;;;;;9.68;3.88;;;15.90;68.80;;;;;;7403600;19;19950;-76
2023/01/23 11:41:08;;;;;;;8.27;4.78;;;16.00;68.60;;;;;;7399929;19;20242;-77
2023/01/23 11:43:34;;;;;;;8.40;4.68;;;16.20;69.90;;;;;;7397064;19;20292;-77
2023/01/23 11:46:30;;;;;;;7.65;4.10;;;16.30;70.20;;;;;;7393595;19;19923;-77
2023/01/23 11:49:23;;;;;;;9.43;4.25;;;16.50;70.00;;;;;;7374078;19;19930;-77
2023/01/23 11:52:10;;;;;;;7.97;4.22;;;16.30;70.90;;;;;;7400457;19;19953;-77
2023/01/23 11:55:24;;;;;;;7.95;4.53;;;16.30;72.00;;;;;;7402528;19;19915;-78
2023/01/23 11:58:16;;;;;;;9.77;4.05;;;16.90;70.90;;;;;;7403541;19;19917;-77
2023/01/23 12:01:01;;;;;;;8.48;4.35;;;16.80;70.30;;;;;;7396562;19;19907;-77
2023/01/23 12:03:26;;;;;;;;;;;17.20;70.90;;;;;;7407038;19;19921;-77
2023/01/23 12:06:22;;;;;;;7.50;4.57;;;17.50;71.60;;;;;;7395683;19;19923;-78
2023/01/23 12:09:01;;;;;;;7.53;4.13;;;17.70;70.70;;;;;;7392304;19;20300;-77
2023/01/23 12:11:53;;;;;;;9.75;4.43;;;17.70;70.00;;;;;;7404523;19;19927;-77
2023/01/23 12:15:04;;;;;;;7.00;4.35;;;18.30;69.70;;;;;;7402209;19;19926;-76
2023/01/23 12:17:40;;;;;;;8.35;4.63;;;18.30;69.40;;;;;;7403893;19;19918;-76
2023/01/23 12:20:23;;;;;;;7.68;4.30;;;18.00;69.30;;;;;;7394413;19;20631;-77
2023/01/23 12:23:16;;;;;;;7.88;4.20;;;17.30;70.20;;;;;;7403584;19;19918;-77
2023/01/23 12:25:49;;;;;;;8.60;3.97;;;17.80;69.60;;;;;;7400255;19;19918;-77
2023/01/23 12:28:40;;;;;;;5.85;3.55;;;18.70;69.00;;;;;;7396474;19;19931;-77
2023/01/23 12:31:24;;;;;;;8.30;3.92;;;18.00;69.10;;;;;;7388191;19;19970;-77
2023/01/23 12:34:12;;;;;;;8.50;3.78;;;17.50;71.40;;;;;;7373151;19;19915;-78
2023/01/23 12:36:41;;;;;;;10.25;4.53;;;18.40;70.00;;;;;;7401222;19;19925;-78
2023/01/23 12:39:44;;;;;;;6.78;3.72;;;19.00;69.40;;;;;;7407324;19;19934;-80
2023/01/23 12:42:23;;;;;;;10.07;5.03;;;19.40;69.30;;;;;;7404313;19;19915;-78
2023/01/23 12:45:02;;;;;;;;;;;20.00;68.70;;;;;;7403361;19;21036;-77
2023/01/23 12:47:38;;;;;;;7.10;3.80;;;19.00;68.80;;;;;;7404037;19;19911;-76
2023/01/23 12:50:33;;;;;;;10.30;4.10;;;19.80;68.70;;;;;;7403581;19;19923;-77
2023/01/23 12:53:04;;;;;;;7.22;4.40;;;20.00;67.80;;;;;;7379394;19;20406;-79
2023/01/23 12:55:35;;;;;;;10.73;4.53;;;19.90;67.60;;;;;;7402283;19;19917;-78
2023/01/23 12:58:02;;;;;;;7.38;3.33;;;19.50;67.60;;;;;;7391715;19;19978;-77
2023/01/23 13:00:45;;;;;;;5.43;3.33;;;19.00;66.30;;;;;;7393930;19;19911;-77
2023/01/23 13:03:38;;;;;;;5.97;3.72;;;19.20;66.10;;;;;;7405791;19;19918;-79
2023/01/23 13:06:21;;;;;;;7.80;3.65;;;19.40;65.70;;;;;;7411235;19;19915;-79
2023/01/23 13:08:49;;;;;;;7.80;4.32;;;20.40;64.80;;;;;;7401964;19;19952;-78
2023/01/23 13:11:39;;;;;;;9.02;3.67;;;21.40;63.70;;;;;;7404348;19;19921;-79
2023/01/23 13:14:41;;;;;;;7.07;3.80;;;20.80;62.70;;;;;;7407885;19;19930;-79
2023/01/23 13:17:25;;;;;;;;;;;20.00;63.10;;;;;;7396255;19;19918;-80
2023/01/23 13:22:37;;;;;;;6.30;2.95;;;19.30;64.30;;;;;;7409839;19;19918;-79
2023/01/23 13:25:13;;;;;;;5.93;3.70;;;20.10;63.40;;;;;;7411025;19;19911;-77
2023/01/23 13:28:00;;;;;;;6.95;3.88;;;19.90;63.20;;;;;;7409397;19;20361;-76